createdAt,value
2022-12-12T08:11:11.858Z,35.17
2022-12-12T08:13:41.220Z,31.05
2022-12-12T08:16:23.234Z,34.70
2022-12-12T08:18:53.571Z,33.88
2022-12-12T08:21:25.899Z,29.10
2022-12-12T08:24:00.969Z,27.08
2022-12-12T08:26:30.171Z,31.80
2022-12-12T08:28:58.540Z,29.73
2022-12-12T08:31:27.345Z,25.98
2022-12-12T08:33:55.655Z,26.85
2022-12-12T08:36:31.516Z,29.65
2022-12-12T08:39:09.055Z,30.40
2022-12-12T08:41:41.737Z,30.10
2022-12-12T08:44:12.116Z,27.40
2022-12-12T08:46:40.127Z,29.13
2022-12-12T08:49:09.493Z,27.23
2022-12-12T08:51:41.582Z,29.67
2022-12-12T08:54:12.332Z,32.35
2022-12-12T08:56:41.157Z,30.40
2022-12-12T08:59:08.608Z,33.47
2022-12-12T09:01:36.410Z,31.00
2022-12-12T09:04:04.300Z,32.10
2022-12-12T09:06:31.685Z,32.05
2022-12-12T09:08:59.554Z,33.40
2022-12-12T09:11:27.247Z,33.95
2022-12-12T09:13:55.782Z,32.50
2022-12-12T09:16:26.442Z,31.35
2022-12-12T09:18:53.981Z,34.42
2022-12-12T09:21:21.709Z,30.50
2022-12-12T09:23:49.711Z,31.88
2022-12-12T09:26:18.026Z,32.42
2022-12-12T09:28:45.496Z,36.97
2022-12-12T09:31:13.916Z,38.25
2022-12-12T09:33:43.279Z,40.53
2022-12-12T09:36:12.409Z,38.13
2022-12-12T09:38:39.963Z,39.90
2022-12-12T09:41:20.488Z,38.20
2022-12-12T09:47:09.287Z,40.03
2022-12-12T09:49:56.552Z,39.83
2022-12-12T09:52:37.809Z,32.92
2022-12-12T09:55:20.938Z,45.17
2022-12-12T09:58:03.325Z,42.42
2022-12-12T10:03:42.799Z,34.78
2022-12-12T10:06:36.415Z,40.17
2022-12-12T10:09:41.401Z,42.78
2022-12-12T10:12:16.546Z,39.70
2022-12-12T10:14:56.647Z,41.90
2022-12-12T10:17:42.690Z,31.27
2022-12-12T10:20:31.329Z,40.25
2022-12-12T10:23:20.204Z,42.20
2022-12-12T10:26:29.730Z,42.65
2022-12-12T10:29:14.878Z,42.42
2022-12-12T10:32:26.006Z,39.38
2022-12-12T10:35:33.808Z,33.88
2022-12-12T10:38:51.031Z,40.80
2022-12-12T10:41:49.116Z,35.45
2022-12-12T10:44:49.398Z,42.47
2022-12-12T10:47:16.750Z,36.50
2022-12-12T10:49:44.145Z,38.97
2022-12-12T10:52:22.509Z,45.42
2022-12-12T10:55:00.015Z,37.47
2022-12-12T10:57:36.370Z,35.35
2022-12-12T11:00:38.378Z,39.53
2022-12-12T11:03:38.891Z,34.67
2022-12-12T11:06:21.005Z,35.47
2022-12-12T11:09:07.300Z,34.65
2022-12-12T11:11:34.774Z,34.08
2022-12-12T11:14:21.043Z,31.65
2022-12-12T11:16:48.747Z,33.70
2022-12-12T11:19:27.384Z,32.13
2022-12-12T11:22:02.391Z,36.72
2022-12-12T11:24:34.894Z,31.02
2022-12-12T11:27:07.514Z,34.08
2022-12-12T11:29:40.792Z,34.80
2022-12-12T11:32:32.450Z,37.20
2022-12-12T11:35:06.562Z,36.05
2022-12-12T11:37:47.561Z,35.72
2022-12-12T11:40:36.838Z,31.45
2022-12-12T11:43:26.671Z,29.00
2022-12-12T11:46:13.522Z,35.47
2022-12-12T11:48:53.869Z,34.22
2022-12-12T11:51:43.176Z,26.27
2022-12-12T11:54:31.064Z,28.95
2022-12-12T11:57:47.944Z,39.38
2022-12-12T12:00:24.297Z,32.63
2022-12-12T12:03:25.470Z,34.83
2022-12-12T12:06:36.593Z,30.63
2022-12-12T12:10:07.055Z,32.45
2022-12-12T12:13:14.779Z,26.55
2022-12-12T12:16:47.246Z,30.80
2022-12-12T12:19:31.447Z,28.13
2022-12-12T12:23:14.151Z,27.27
2022-12-12T12:26:36.540Z,22.13
2022-12-12T12:29:57.174Z,22.15
2022-12-12T12:33:36.713Z,25.80
2022-12-12T12:36:33.904Z,23.38
2022-12-12T12:39:37.829Z,21.05
2022-12-12T12:43:20.757Z,23.65
2022-12-12T12:46:07.557Z,22.52
2022-12-12T12:49:01.673Z,22.08
2022-12-12T12:51:50.198Z,21.77
2022-12-12T12:54:44.042Z,22.08
2022-12-12T12:57:39.927Z,23.02
2022-12-12T13:00:21.410Z,23.73
2022-12-12T13:03:11.569Z,24.17
2022-12-12T13:05:56.997Z,21.02
2022-12-12T13:08:53.777Z,22.50
2022-12-12T13:11:42.819Z,23.13
2022-12-12T13:14:37.901Z,22.73
2022-12-12T13:17:18.140Z,24.08
2022-12-12T13:19:53.530Z,22.85
2022-12-12T13:22:57.421Z,22.70
2022-12-12T13:26:09.661Z,22.23
2022-12-12T13:29:32.282Z,25.10
2022-12-12T13:32:20.220Z,20.67
2022-12-12T13:34:56.276Z,25.27
2022-12-12T13:37:24.495Z,22.02
2022-12-12T13:40:04.795Z,21.17
2022-12-12T13:43:09.905Z,24.65
2022-12-12T13:45:56.584Z,23.10
2022-12-12T13:48:29.763Z,24.42
2022-12-12T13:51:27.876Z,22.55
2022-12-12T13:54:12.224Z,23.70
2022-12-12T13:57:12.336Z,25.67
2022-12-12T14:00:08.031Z,24.30
2022-12-12T14:02:41.652Z,23.83
2022-12-12T14:05:21.569Z,23.70
2022-12-12T14:08:10.685Z,24.05
2022-12-12T14:10:50.041Z,24.40
2022-12-12T14:13:23.276Z,23.80
2022-12-12T14:16:03.857Z,24.00
2022-12-12T14:18:59.126Z,22.60
2022-12-12T14:21:47.757Z,23.77
2022-12-12T14:24:33.402Z,23.35
2022-12-12T14:27:10.883Z,27.13
2022-12-12T14:29:45.883Z,24.02
2022-12-12T14:32:13.251Z,23.33
2022-12-12T14:35:47.506Z,23.52
2022-12-12T14:38:51.921Z,24.48
2022-12-12T14:41:31.332Z,25.58
2022-12-12T14:44:35.238Z,27.17
2022-12-12T14:46:59.234Z,25.17
2022-12-12T14:49:27.716Z,24.75
2022-12-12T14:51:58.200Z,24.00
2022-12-12T14:56:59.402Z,21.65
2022-12-12T14:59:39.925Z,26.05
2022-12-12T15:05:08.063Z,22.77
2022-12-12T15:07:39.027Z,23.70
2022-12-12T15:10:30.631Z,26.50
2022-12-12T15:12:58.017Z,23.52
2022-12-12T15:15:33.502Z,25.20
2022-12-12T15:18:01.926Z,25.92
2022-12-12T15:20:32.426Z,27.10
2022-12-12T15:23:07.413Z,26.40
2022-12-12T15:25:48.765Z,26.30
2022-12-12T15:28:21.700Z,28.10
2022-12-12T15:30:55.205Z,24.35
2022-12-12T15:33:27.696Z,23.17
2022-12-12T15:36:05.361Z,25.63
2022-12-12T15:38:34.499Z,29.38
2022-12-12T15:41:11.187Z,25.08
2022-12-12T15:43:41.194Z,26.42
2022-12-12T15:46:15.691Z,26.33
2022-12-12T15:48:50.404Z,22.88
2022-12-12T15:51:24.790Z,24.85
2022-12-12T15:53:55.426Z,25.40
2022-12-12T15:56:29.151Z,26.85
2022-12-12T15:59:05.548Z,26.10
2022-12-12T16:01:33.445Z,23.50
2022-12-12T16:04:25.048Z,24.35
2022-12-12T16:06:52.573Z,22.20
2022-12-12T16:09:24.940Z,22.38
2022-12-12T16:11:59.518Z,23.63
2022-12-12T16:14:40.747Z,28.92
2022-12-12T16:17:25.644Z,22.42
2022-12-12T16:20:07.519Z,21.98
2022-12-12T16:22:49.797Z,29.60
2022-12-12T16:25:29.455Z,24.73
2022-12-12T16:28:08.454Z,20.73
2022-12-12T16:30:38.693Z,24.50
2022-12-12T16:33:35.227Z,22.88
2022-12-12T16:36:14.442Z,23.10
2022-12-12T16:38:43.197Z,22.38
2022-12-12T16:41:18.356Z,21.90
2022-12-12T16:43:46.103Z,21.38
2022-12-12T16:46:31.758Z,21.52
2022-12-12T16:49:09.373Z,23.02
2022-12-12T16:51:41.365Z,21.95
2022-12-12T16:54:17.095Z,24.55
2022-12-12T16:56:50.526Z,21.63
2022-12-12T16:59:18.322Z,24.05
2022-12-12T17:01:46.050Z,21.77
2022-12-12T17:04:23.629Z,22.20
2022-12-12T17:06:51.554Z,24.52
2022-12-12T17:09:19.841Z,24.92
2022-12-12T17:11:47.451Z,25.40
2022-12-12T17:14:24.699Z,21.83
2022-12-12T17:16:56.172Z,22.85
2022-12-12T17:19:23.642Z,25.15
2022-12-12T17:21:51.048Z,21.45
2022-12-12T17:24:18.488Z,23.52
2022-12-12T17:26:46.223Z,27.35
2022-12-12T17:29:13.617Z,24.00
2022-12-12T17:31:41.059Z,24.30
2022-12-12T17:34:08.591Z,21.67
2022-12-12T17:36:36.023Z,23.77
2022-12-12T17:39:04.576Z,21.02
2022-12-12T17:41:31.917Z,23.60
2022-12-12T17:43:59.819Z,24.85
2022-12-12T17:46:28.810Z,25.13
2022-12-12T17:48:59.375Z,24.85
2022-12-12T17:53:55.346Z,22.40
2022-12-12T17:56:25.309Z,23.45
2022-12-12T17:58:54.719Z,19.55
2022-12-12T18:01:33.627Z,25.48
2022-12-12T18:04:03.741Z,22.65
2022-12-12T18:06:34.629Z,24.92
2022-12-12T18:09:03.072Z,22.85
2022-12-12T18:11:35.672Z,23.98
2022-12-12T18:14:07.576Z,26.13
2022-12-12T18:16:36.336Z,26.35
2022-12-12T18:19:04.133Z,23.08
2022-12-12T18:24:25.454Z,23.98
2022-12-12T18:26:57.523Z,24.70
2022-12-12T18:29:26.561Z,23.95
2022-12-12T18:31:54.521Z,23.73
2022-12-12T18:34:22.375Z,23.20
2022-12-12T18:36:50.174Z,23.40
2022-12-12T18:39:17.996Z,23.83
2022-12-12T18:41:45.574Z,23.67
2022-12-12T18:46:44.681Z,21.73
2022-12-12T18:49:16.023Z,23.98
2022-12-12T18:51:47.723Z,23.65
2022-12-12T18:54:32.627Z,21.45
2022-12-12T18:57:00.029Z,21.15
2022-12-12T18:59:27.427Z,21.92
2022-12-12T19:01:54.921Z,23.48
2022-12-12T19:04:23.717Z,25.85
2022-12-12T19:06:51.791Z,26.33
